sensor_id;sensor_type;location;lat;lon;timestamp;P1;durP1;ratioP1;P2;durP2;ratioP2
553;SDS011;59;48.778;9.156;2023-04-15T00:00:15;12.50;;;5.10;;
553;SDS011;59;48.778;9.156;2023-04-15T00:02:41;7.80;;;4.40;;
553;SDS011;59;48.778;9.156;2023-04-15T00:05:08;7.73;;;4.27;;
553;SDS011;59;48.778;9.156;2023-04-15T00:07:34;6.87;;;4.00;;
553;SDS011;59;48.778;9.156;2023-04-15T00:10:00;6.33;;;4.23;;
553;SDS011;59;48.778;9.156;2023-04-15T00:12:26;5.70;;;4.00;;
553;SDS011;59;48.778;9.156;2023-04-15T00:14:52;7.87;;;4.10;;
553;SDS011;59;48.778;9.156;2023-04-15T00:17:18;7.63;;;4.23;;
553;SDS011;59;48.778;9.156;2023-04-15T00:19:44;6.07;;;3.93;;
553;SDS011;59;48.778;9.156;2023-04-15T00:22:10;9.77;;;4.67;;
553;SDS011;59;48.778;9.156;2023-04-15T00:24:36;8.97;;;5.20;;
553;SDS011;59;48.778;9.156;2023-04-15T00:27:03;6.43;;;4.37;;
553;SDS011;59;48.778;9.156;2023-04-15T00:29:29;6.90;;;4.70;;
553;SDS011;59;48.778;9.156;2023-04-15T00:31:56;8.37;;;5.10;;
553;SDS011;59;48.778;9.156;2023-04-15T00:34:25;9.20;;;4.60;;
553;SDS011;59;48.778;9.156;2023-04-15T00:36:51;8.47;;;4.47;;
553;SDS011;59;48.778;9.156;2023-04-15T00:39:19;9.00;;;4.23;;
553;SDS011;59;48.778;9.156;2023-04-15T00:41:45;5.60;;;3.80;;
553;SDS011;59;48.778;9.156;2023-04-15T00:44:11;5.80;;;3.53;;
553;SDS011;59;48.778;9.156;2023-04-15T00:46:37;7.30;;;4.37;;
553;SDS011;59;48.778;9.156;2023-04-15T00:49:04;7.27;;;4.20;;
553;SDS011;59;48.778;9.156;2023-04-15T00:51:30;8.27;;;4.23;;
553;SDS011;59;48.778;9.156;2023-04-15T00:53:57;8.17;;;4.27;;
553;SDS011;59;48.778;9.156;2023-04-15T00:56:24;9.13;;;4.73;;
553;SDS011;59;48.778;9.156;2023-04-15T00:58:51;7.77;;;5.10;;
553;SDS011;59;48.778;9.156;2023-04-15T01:01:20;9.33;;;5.47;;
553;SDS011;59;48.778;9.156;2023-04-15T01:03:49;10.60;;;5.53;;
553;SDS011;59;48.778;9.156;2023-04-15T01:06:15;9.77;;;5.50;;
553;SDS011;59;48.778;9.156;2023-04-15T01:08:42;8.87;;;5.03;;
553;SDS011;59;48.778;9.156;2023-04-15T01:11:08;7.20;;;4.90;;
553;SDS011;59;48.778;9.156;2023-04-15T01:13:34;7.60;;;5.03;;
553;SDS011;59;48.778;9.156;2023-04-15T01:16:00;9.10;;;4.77;;
553;SDS011;59;48.778;9.156;2023-04-15T01:18:27;8.07;;;4.57;;
553;SDS011;59;48.778;9.156;2023-04-15T01:20:53;5.97;;;3.80;;
553;SDS011;59;48.778;9.156;2023-04-15T01:23:20;8.83;;;4.67;;
553;SDS011;59;48.778;9.156;2023-04-15T01:25:48;9.63;;;4.93;;
553;SDS011;59;48.778;9.156;2023-04-15T01:28:14;8.77;;;4.87;;
553;SDS011;59;48.778;9.156;2023-04-15T01:30:40;10.80;;;5.57;;
553;SDS011;59;48.778;9.156;2023-04-15T01:33:06;7.00;;;5.43;;
553;SDS011;59;48.778;9.156;2023-04-15T01:35:32;7.00;;;5.20;;
553;SDS011;59;48.778;9.156;2023-04-15T01:38:04;9.40;;;5.60;;
553;SDS011;59;48.778;9.156;2023-04-15T01:40:31;7.50;;;4.87;;
553;SDS011;59;48.778;9.156;2023-04-15T01:42:58;9.27;;;4.63;;
553;SDS011;59;48.778;9.156;2023-04-15T01:45:24;7.90;;;5.03;;
553;SDS011;59;48.778;9.156;2023-04-15T01:47:49;8.97;;;4.83;;
553;SDS011;59;48.778;9.156;2023-04-15T01:50:15;10.40;;;5.60;;
553;SDS011;59;48.778;9.156;2023-04-15T01:52:41;10.87;;;5.87;;
553;SDS011;59;48.778;9.156;2023-04-15T01:55:07;8.67;;;5.40;;
553;SDS011;59;48.778;9.156;2023-04-15T01:57:35;7.53;;;4.87;;
553;SDS011;59;48.778;9.156;2023-04-15T02:00:01;11.57;;;4.90;;
553;SDS011;59;48.778;9.156;2023-04-15T02:02:27;7.23;;;5.00;;
553;SDS011;59;48.778;9.156;2023-04-15T02:17:50;9.43;;;5.30;;
553;SDS011;59;48.778;9.156;2023-04-15T02:20:19;7.97;;;4.40;;
553;SDS011;59;48.778;9.156;2023-04-15T02:22:45;8.10;;;5.30;;
553;SDS011;59;48.778;9.156;2023-04-15T02:25:12;7.90;;;5.10;;
553;SDS011;59;48.778;9.156;2023-04-15T02:27:38;8.07;;;5.03;;
553;SDS011;59;48.778;9.156;2023-04-15T02:30:04;9.43;;;5.70;;
553;SDS011;59;48.778;9.156;2023-04-15T02:32:33;7.80;;;5.20;;
553;SDS011;59;48.778;9.156;2023-04-15T02:35:05;7.37;;;4.63;;
553;SDS011;59;48.778;9.156;2023-04-15T02:37:34;7.77;;;4.97;;
553;SDS011;59;48.778;9.156;2023-04-15T02:40:13;6.67;;;4.80;;
553;SDS011;59;48.778;9.156;2023-04-15T02:42:39;8.40;;;4.80;;
553;SDS011;59;48.778;9.156;2023-04-15T02:45:05;8.13;;;4.90;;
553;SDS011;59;48.778;9.156;2023-04-15T02:47:32;7.83;;;4.80;;
553;SDS011;59;48.778;9.156;2023-04-15T02:49:58;9.63;;;5.20;;
553;SDS011;59;48.778;9.156;2023-04-15T02:52:25;8.50;;;4.30;;
553;SDS011;59;48.778;9.156;2023-04-15T02:54:51;9.33;;;5.37;;
553;SDS011;59;48.778;9.156;2023-04-15T02:57:21;8.53;;;4.90;;
553;SDS011;59;48.778;9.156;2023-04-15T02:59:47;7.33;;;5.23;;
553;SDS011;59;48.778;9.156;2023-04-15T03:02:12;7.03;;;4.57;;
553;SDS011;59;48.778;9.156;2023-04-15T03:04:38;7.50;;;4.20;;
553;SDS011;59;48.778;9.156;2023-04-15T03:07:04;6.97;;;4.43;;
553;SDS011;59;48.778;9.156;2023-04-15T03:09:30;7.13;;;4.80;;
553;SDS011;59;48.778;9.156;2023-04-15T03:11:56;6.50;;;4.40;;
553;SDS011;59;48.778;9.156;2023-04-15T03:14:22;12.97;;;4.93;;
553;SDS011;59;48.778;9.156;2023-04-15T03:19:29;8.77;;;4.67;;
553;SDS011;59;48.778;9.156;2023-04-15T03:21:55;6.10;;;4.63;;
553;SDS011;59;48.778;9.156;2023-04-15T03:24:21;8.20;;;5.00;;
553;SDS011;59;48.778;9.156;2023-04-15T03:26:47;8.57;;;5.10;;
553;SDS011;59;48.778;9.156;2023-04-15T03:29:12;9.43;;;5.70;;
553;SDS011;59;48.778;9.156;2023-04-15T03:31:38;7.67;;;4.80;;
553;SDS011;59;48.778;9.156;2023-04-15T03:34:04;7.13;;;4.67;;
553;SDS011;59;48.778;9.156;2023-04-15T03:36:29;7.77;;;4.77;;
553;SDS011;59;48.778;9.156;2023-04-15T03:38:57;8.17;;;5.20;;
553;SDS011;59;48.778;9.156;2023-04-15T03:41:23;7.73;;;4.63;;
553;SDS011;59;48.778;9.156;2023-04-15T03:43:48;7.20;;;4.27;;
553;SDS011;59;48.778;9.156;2023-04-15T03:46:16;7.83;;;4.10;;
553;SDS011;59;48.778;9.156;2023-04-15T03:48:42;6.37;;;4.40;;
553;SDS011;59;48.778;9.156;2023-04-15T03:51:07;8.70;;;4.27;;
553;SDS011;59;48.778;9.156;2023-04-15T03:53:33;7.87;;;4.40;;
553;SDS011;59;48.778;9.156;2023-04-15T03:55:59;7.20;;;4.70;;
553;SDS011;59;48.778;9.156;2023-04-15T03:58:25;7.67;;;4.73;;
553;SDS011;59;48.778;9.156;2023-04-15T04:00:51;6.57;;;4.10;;
553;SDS011;59;48.778;9.156;2023-04-15T04:03:16;7.90;;;5.03;;
553;SDS011;59;48.778;9.156;2023-04-15T04:05:42;8.60;;;4.70;;
553;SDS011;59;48.778;9.156;2023-04-15T04:08:08;11.03;;;5.10;;
553;SDS011;59;48.778;9.156;2023-04-15T04:10:34;8.70;;;4.80;;
553;SDS011;59;48.778;9.156;2023-04-15T04:13:00;7.47;;;5.07;;
553;SDS011;59;48.778;9.156;2023-04-15T04:15:26;8.03;;;4.97;;
553;SDS011;59;48.778;9.156;2023-04-15T04:17:51;9.67;;;5.13;;
553;SDS011;59;48.778;9.156;2023-04-15T04:20:17;8.13;;;4.43;;
553;SDS011;59;48.778;9.156;2023-04-15T04:22:43;8.50;;;4.87;;
553;SDS011;59;48.778;9.156;2023-04-15T04:25:08;7.77;;;5.30;;
553;SDS011;59;48.778;9.156;2023-04-15T04:27:35;9.00;;;4.50;;
553;SDS011;59;48.778;9.156;2023-04-15T04:30:00;7.60;;;4.10;;
553;SDS011;59;48.778;9.156;2023-04-15T04:32:26;8.97;;;4.50;;
553;SDS011;59;48.778;9.156;2023-04-15T04:34:52;6.27;;;4.20;;
553;SDS011;59;48.778;9.156;2023-04-15T04:37:17;6.77;;;4.20;;
553;SDS011;59;48.778;9.156;2023-04-15T04:39:43;7.27;;;4.73;;
553;SDS011;59;48.778;9.156;2023-04-15T04:42:09;8.20;;;4.53;;
553;SDS011;59;48.778;9.156;2023-04-15T04:44:35;5.40;;;4.30;;
553;SDS011;59;48.778;9.156;2023-04-15T04:47:01;8.17;;;5.00;;
553;SDS011;59;48.778;9.156;2023-04-15T04:49:26;6.57;;;4.60;;
553;SDS011;59;48.778;9.156;2023-04-15T04:51:52;8.47;;;4.63;;
553;SDS011;59;48.778;9.156;2023-04-15T04:54:18;8.70;;;5.23;;
553;SDS011;59;48.778;9.156;2023-04-15T04:56:43;8.53;;;5.10;;
553;SDS011;59;48.778;9.156;2023-04-15T04:59:09;8.30;;;5.23;;
553;SDS011;59;48.778;9.156;2023-04-15T05:01:35;8.90;;;4.83;;
553;SDS011;59;48.778;9.156;2023-04-15T05:04:01;7.77;;;5.00;;
553;SDS011;59;48.778;9.156;2023-04-15T05:06:28;9.70;;;4.90;;
553;SDS011;59;48.778;9.156;2023-04-15T05:08:55;9.40;;;4.60;;
553;SDS011;59;48.778;9.156;2023-04-15T05:11:20;7.60;;;4.67;;
553;SDS011;59;48.778;9.156;2023-04-15T05:13:46;7.30;;;4.67;;
553;SDS011;59;48.778;9.156;2023-04-15T05:16:12;12.83;;;4.77;;
553;SDS011;59;48.778;9.156;2023-04-15T05:18:37;8.47;;;5.10;;
553;SDS011;59;48.778;9.156;2023-04-15T05:21:03;9.37;;;4.77;;
553;SDS011;59;48.778;9.156;2023-04-15T05:23:29;7.87;;;4.60;;
553;SDS011;59;48.778;9.156;2023-04-15T05:25:55;8.77;;;4.57;;
553;SDS011;59;48.778;9.156;2023-04-15T05:28:20;7.20;;;4.73;;
553;SDS011;59;48.778;9.156;2023-04-15T05:30:46;6.87;;;5.00;;
553;SDS011;59;48.778;9.156;2023-04-15T05:33:12;11.83;;;5.20;;
553;SDS011;59;48.778;9.156;2023-04-15T05:35:37;9.17;;;5.10;;
553;SDS011;59;48.778;9.156;2023-04-15T05:38:03;7.10;;;4.87;;
553;SDS011;59;48.778;9.156;2023-04-15T05:40:29;7.67;;;5.50;;
553;SDS011;59;48.778;9.156;2023-04-15T05:42:55;10.40;;;5.07;;
553;SDS011;59;48.778;9.156;2023-04-15T05:45:21;7.80;;;5.33;;
553;SDS011;59;48.778;9.156;2023-04-15T05:47:46;9.97;;;6.10;;
553;SDS011;59;48.778;9.156;2023-04-15T05:50:14;9.27;;;6.03;;
553;SDS011;59;48.778;9.156;2023-04-15T05:52:40;12.43;;;5.53;;
553;SDS011;59;48.778;9.156;2023-04-15T05:55:06;10.47;;;5.40;;
553;SDS011;59;48.778;9.156;2023-04-15T05:57:32;9.40;;;5.53;;
553;SDS011;59;48.778;9.156;2023-04-15T05:59:57;7.60;;;5.50;;
553;SDS011;59;48.778;9.156;2023-04-15T06:02:23;8.90;;;6.10;;
553;SDS011;59;48.778;9.156;2023-04-15T06:04:49;8.97;;;5.53;;
553;SDS011;59;48.778;9.156;2023-04-15T06:07:14;8.00;;;5.20;;
553;SDS011;59;48.778;9.156;2023-04-15T06:09:40;5.60;;;4.20;;
553;SDS011;59;48.778;9.156;2023-04-15T06:12:06;6.90;;;4.80;;
553;SDS011;59;48.778;9.156;2023-04-15T06:14:36;9.10;;;4.93;;
553;SDS011;59;48.778;9.156;2023-04-15T06:17:02;10.10;;;5.07;;
553;SDS011;59;48.778;9.156;2023-04-15T06:19:28;9.87;;;4.33;;
553;SDS011;59;48.778;9.156;2023-04-15T06:21:54;5.53;;;4.20;;
553;SDS011;59;48.778;9.156;2023-04-15T06:24:20;8.67;;;4.90;;
553;SDS011;59;48.778;9.156;2023-04-15T06:26:46;12.90;;;4.70;;
553;SDS011;59;48.778;9.156;2023-04-15T06:29:11;7.93;;;4.93;;
553;SDS011;59;48.778;9.156;2023-04-15T06:31:37;7.43;;;4.67;;
553;SDS011;59;48.778;9.156;2023-04-15T06:34:03;7.70;;;4.50;;
553;SDS011;59;48.778;9.156;2023-04-15T06:36:28;6.50;;;3.90;;
553;SDS011;59;48.778;9.156;2023-04-15T06:38:54;6.93;;;4.40;;
553;SDS011;59;48.778;9.156;2023-04-15T06:41:21;14.73;;;8.30;;
553;SDS011;59;48.778;9.156;2023-04-15T06:43:46;10.57;;;6.87;;
553;SDS011;59;48.778;9.156;2023-04-15T06:46:12;8.50;;;5.50;;
553;SDS011;59;48.778;9.156;2023-04-15T06:48:38;9.10;;;5.10;;
553;SDS011;59;48.778;9.156;2023-04-15T06:51:03;7.77;;;5.10;;
553;SDS011;59;48.778;9.156;2023-04-15T06:53:29;10.37;;;5.97;;
553;SDS011;59;48.778;9.156;2023-04-15T06:55:55;7.93;;;5.13;;
553;SDS011;59;48.778;9.156;2023-04-15T06:58:21;11.17;;;5.13;;
553;SDS011;59;48.778;9.156;2023-04-15T07:00:46;8.90;;;5.30;;
553;SDS011;59;48.778;9.156;2023-04-15T07:03:13;7.83;;;5.07;;
553;SDS011;59;48.778;9.156;2023-04-15T07:05:39;7.47;;;5.00;;
553;SDS011;59;48.778;9.156;2023-04-15T07:08:05;9.00;;;5.67;;
553;SDS011;59;48.778;9.156;2023-04-15T07:10:32;7.60;;;4.97;;
553;SDS011;59;48.778;9.156;2023-04-15T07:12:58;8.57;;;5.53;;
553;SDS011;59;48.778;9.156;2023-04-15T07:15:24;6.73;;;5.00;;
553;SDS011;59;48.778;9.156;2023-04-15T07:17:49;10.67;;;5.97;;
553;SDS011;59;48.778;9.156;2023-04-15T07:20:15;8.83;;;5.00;;
553;SDS011;59;48.778;9.156;2023-04-15T07:22:41;8.13;;;5.13;;
553;SDS011;59;48.778;9.156;2023-04-15T07:25:07;8.47;;;6.07;;
553;SDS011;59;48.778;9.156;2023-04-15T07:27:33;7.97;;;5.10;;
553;SDS011;59;48.778;9.156;2023-04-15T07:29:59;6.90;;;4.80;;
553;SDS011;59;48.778;9.156;2023-04-15T07:32:24;9.33;;;5.10;;
553;SDS011;59;48.778;9.156;2023-04-15T07:34:51;7.63;;;4.90;;
553;SDS011;59;48.778;9.156;2023-04-15T07:37:17;6.73;;;5.07;;
553;SDS011;59;48.778;9.156;2023-04-15T07:39:43;7.20;;;5.57;;
553;SDS011;59;48.778;9.156;2023-04-15T07:42:09;12.00;;;7.30;;
553;SDS011;59;48.778;9.156;2023-04-15T07:44:35;11.63;;;7.17;;
553;SDS011;59;48.778;9.156;2023-04-15T07:47:01;10.90;;;7.00;;
553;SDS011;59;48.778;9.156;2023-04-15T07:49:28;11.10;;;6.47;;
553;SDS011;59;48.778;9.156;2023-04-15T07:51:53;9.50;;;5.80;;
553;SDS011;59;48.778;9.156;2023-04-15T07:54:21;8.93;;;5.93;;
553;SDS011;59;48.778;9.156;2023-04-15T07:56:47;7.63;;;5.03;;
553;SDS011;59;48.778;9.156;2023-04-15T07:59:12;7.23;;;5.13;;
553;SDS011;59;48.778;9.156;2023-04-15T08:01:41;6.83;;;4.73;;
553;SDS011;59;48.778;9.156;2023-04-15T08:04:08;7.60;;;5.13;;
553;SDS011;59;48.778;9.156;2023-04-15T08:06:34;5.70;;;4.10;;
553;SDS011;59;48.778;9.156;2023-04-15T08:09:00;8.10;;;4.57;;
553;SDS011;59;48.778;9.156;2023-04-15T08:11:26;4.97;;;3.57;;
553;SDS011;59;48.778;9.156;2023-04-15T08:13:52;5.37;;;4.00;;
553;SDS011;59;48.778;9.156;2023-04-15T08:16:21;5.50;;;3.77;;
553;SDS011;59;48.778;9.156;2023-04-15T08:18:48;10.50;;;4.57;;
553;SDS011;59;48.778;9.156;2023-04-15T08:21:15;5.57;;;4.13;;
553;SDS011;59;48.778;9.156;2023-04-15T08:23:42;6.60;;;4.80;;
553;SDS011;59;48.778;9.156;2023-04-15T08:26:08;26.30;;;17.13;;
553;SDS011;59;48.778;9.156;2023-04-15T08:28:34;23.40;;;15.30;;
553;SDS011;59;48.778;9.156;2023-04-15T08:31:03;21.60;;;14.03;;
553;SDS011;59;48.778;9.156;2023-04-15T08:33:29;16.63;;;10.70;;
553;SDS011;59;48.778;9.156;2023-04-15T08:35:54;15.73;;;10.27;;
553;SDS011;59;48.778;9.156;2023-04-15T08:38:21;14.07;;;8.43;;
553;SDS011;59;48.778;9.156;2023-04-15T08:40:47;13.10;;;8.20;;
553;SDS011;59;48.778;9.156;2023-04-15T08:43:23;10.70;;;6.73;;
553;SDS011;59;48.778;9.156;2023-04-15T08:45:53;10.17;;;6.60;;
553;SDS011;59;48.778;9.156;2023-04-15T08:48:19;8.03;;;5.77;;
553;SDS011;59;48.778;9.156;2023-04-15T08:50:48;9.20;;;5.77;;
553;SDS011;59;48.778;9.156;2023-04-15T08:53:15;8.07;;;5.00;;
553;SDS011;59;48.778;9.156;2023-04-15T08:55:42;8.40;;;4.90;;
553;SDS011;59;48.778;9.156;2023-04-15T08:58:09;8.13;;;4.50;;
553;SDS011;59;48.778;9.156;2023-04-15T09:00:36;7.17;;;4.03;;
553;SDS011;59;48.778;9.156;2023-04-15T09:03:03;8.83;;;4.20;;
553;SDS011;59;48.778;9.156;2023-04-15T09:05:36;5.73;;;4.10;;
553;SDS011;59;48.778;9.156;2023-04-15T09:08:02;5.30;;;3.43;;
553;SDS011;59;48.778;9.156;2023-04-15T09:10:29;7.03;;;3.43;;
553;SDS011;59;48.778;9.156;2023-04-15T09:12:55;4.23;;;2.80;;
553;SDS011;59;48.778;9.156;2023-04-15T09:15:21;4.87;;;3.03;;
553;SDS011;59;48.778;9.156;2023-04-15T09:17:49;4.53;;;3.17;;
553;SDS011;59;48.778;9.156;2023-04-15T09:20:16;4.73;;;2.30;;
553;SDS011;59;48.778;9.156;2023-04-15T09:22:45;2.90;;;2.13;;
553;SDS011;59;48.778;9.156;2023-04-15T09:27:51;5.60;;;2.80;;
553;SDS011;59;48.778;9.156;2023-04-15T09:30:18;3.33;;;2.07;;
553;SDS011;59;48.778;9.156;2023-04-15T09:32:50;6.97;;;3.17;;
553;SDS011;59;48.778;9.156;2023-04-15T09:35:18;5.37;;;2.73;;
553;SDS011;59;48.778;9.156;2023-04-15T09:37:44;6.00;;;3.70;;
553;SDS011;59;48.778;9.156;2023-04-15T09:40:10;5.03;;;3.07;;
553;SDS011;59;48.778;9.156;2023-04-15T09:42:39;6.00;;;2.93;;
553;SDS011;59;48.778;9.156;2023-04-15T09:45:19;5.77;;;2.80;;
553;SDS011;59;48.778;9.156;2023-04-15T09:47:45;6.90;;;2.93;;
553;SDS011;59;48.778;9.156;2023-04-15T09:50:11;3.60;;;2.53;;
553;SDS011;59;48.778;9.156;2023-04-15T09:52:40;3.90;;;2.93;;
553;SDS011;59;48.778;9.156;2023-04-15T09:55:07;5.80;;;3.07;;
553;SDS011;59;48.778;9.156;2023-04-15T09:57:36;5.63;;;3.40;;
553;SDS011;59;48.778;9.156;2023-04-15T10:00:03;9.77;;;3.50;;
553;SDS011;59;48.778;9.156;2023-04-15T10:02:30;5.60;;;2.77;;
553;SDS011;59;48.778;9.156;2023-04-15T10:04:56;4.63;;;3.10;;
553;SDS011;59;48.778;9.156;2023-04-15T10:07:22;4.93;;;3.10;;
553;SDS011;59;48.778;9.156;2023-04-15T10:09:48;4.77;;;2.77;;
553;SDS011;59;48.778;9.156;2023-04-15T10:12:18;4.93;;;3.13;;
553;SDS011;59;48.778;9.156;2023-04-15T10:14:44;3.43;;;2.73;;
553;SDS011;59;48.778;9.156;2023-04-15T10:17:14;4.30;;;3.10;;
553;SDS011;59;48.778;9.156;2023-04-15T10:19:42;5.27;;;3.10;;
553;SDS011;59;48.778;9.156;2023-04-15T10:22:08;3.20;;;2.67;;
553;SDS011;59;48.778;9.156;2023-04-15T10:24:34;6.03;;;2.77;;
553;SDS011;59;48.778;9.156;2023-04-15T10:27:00;4.27;;;2.80;;
553;SDS011;59;48.778;9.156;2023-04-15T10:29:28;3.63;;;2.60;;
553;SDS011;59;48.778;9.156;2023-04-15T10:31:54;6.50;;;3.57;;
553;SDS011;59;48.778;9.156;2023-04-15T10:34:21;7.30;;;3.87;;
553;SDS011;59;48.778;9.156;2023-04-15T10:36:48;7.63;;;3.60;;
553;SDS011;59;48.778;9.156;2023-04-15T10:42:17;6.20;;;3.60;;
553;SDS011;59;48.778;9.156;2023-04-15T10:44:44;8.43;;;4.43;;
553;SDS011;59;48.778;9.156;2023-04-15T10:47:15;9.17;;;3.90;;
553;SDS011;59;48.778;9.156;2023-04-15T10:49:47;6.20;;;4.27;;
553;SDS011;59;48.778;9.156;2023-04-15T10:52:21;6.57;;;3.37;;
553;SDS011;59;48.778;9.156;2023-04-15T10:54:49;5.37;;;3.40;;
553;SDS011;59;48.778;9.156;2023-04-15T10:57:36;4.93;;;3.57;;
553;SDS011;59;48.778;9.156;2023-04-15T11:00:12;6.83;;;3.30;;
553;SDS011;59;48.778;9.156;2023-04-15T11:02:40;3.60;;;2.83;;
553;SDS011;59;48.778;9.156;2023-04-15T11:05:10;4.83;;;2.67;;
553;SDS011;59;48.778;9.156;2023-04-15T11:07:38;9.37;;;3.27;;
553;SDS011;59;48.778;9.156;2023-04-15T11:12:45;7.33;;;4.30;;
553;SDS011;59;48.778;9.156;2023-04-15T11:15:37;5.77;;;3.70;;
553;SDS011;59;48.778;9.156;2023-04-15T11:20:42;12.03;;;8.40;;
553;SDS011;59;48.778;9.156;2023-04-15T11:23:09;5.70;;;4.40;;
553;SDS011;59;48.778;9.156;2023-04-15T11:25:35;3.97;;;3.33;;
553;SDS011;59;48.778;9.156;2023-04-15T11:28:02;6.20;;;3.80;;
553;SDS011;59;48.778;9.156;2023-04-15T11:30:29;12.50;;;3.70;;
553;SDS011;59;48.778;9.156;2023-04-15T11:32:59;4.63;;;3.00;;
553;SDS011;59;48.778;9.156;2023-04-15T11:35:27;4.93;;;3.07;;
553;SDS011;59;48.778;9.156;2023-04-15T11:37:53;7.47;;;4.13;;
553;SDS011;59;48.778;9.156;2023-04-15T11:40:27;6.97;;;3.80;;
553;SDS011;59;48.778;9.156;2023-04-15T11:45:36;6.43;;;3.80;;
553;SDS011;59;48.778;9.156;2023-04-15T11:48:09;6.30;;;3.60;;
553;SDS011;59;48.778;9.156;2023-04-15T11:50:35;4.63;;;3.30;;
553;SDS011;59;48.778;9.156;2023-04-15T11:53:03;6.37;;;3.80;;
553;SDS011;59;48.778;9.156;2023-04-15T11:55:30;7.43;;;3.77;;
553;SDS011;59;48.778;9.156;2023-04-15T12:00:34;6.97;;;4.10;;
553;SDS011;59;48.778;9.156;2023-04-15T12:03:11;6.60;;;5.00;;
553;SDS011;59;48.778;9.156;2023-04-15T12:06:01;7.70;;;4.07;;
553;SDS011;59;48.778;9.156;2023-04-15T12:13:55;10.80;;;4.00;;
553;SDS011;59;48.778;9.156;2023-04-15T12:16:30;4.93;;;3.70;;
553;SDS011;59;48.778;9.156;2023-04-15T12:18:56;7.50;;;3.80;;
553;SDS011;59;48.778;9.156;2023-04-15T12:21:24;4.80;;;3.27;;
553;SDS011;59;48.778;9.156;2023-04-15T12:23:51;4.67;;;3.40;;
553;SDS011;59;48.778;9.156;2023-04-15T12:26:29;7.57;;;2.83;;
553;SDS011;59;48.778;9.156;2023-04-15T12:29:06;4.23;;;3.10;;
553;SDS011;59;48.778;9.156;2023-04-15T12:31:36;5.57;;;3.53;;
553;SDS011;59;48.778;9.156;2023-04-15T12:34:02;6.30;;;4.03;;
553;SDS011;59;48.778;9.156;2023-04-15T12:36:29;6.50;;;4.30;;
553;SDS011;59;48.778;9.156;2023-04-15T12:39:00;4.80;;;3.43;;
553;SDS011;59;48.778;9.156;2023-04-15T12:41:27;5.97;;;3.90;;
553;SDS011;59;48.778;9.156;2023-04-15T12:43:52;4.93;;;3.20;;
553;SDS011;59;48.778;9.156;2023-04-15T12:46:18;6.87;;;4.07;;
553;SDS011;59;48.778;9.156;2023-04-15T12:48:44;5.53;;;4.40;;
553;SDS011;59;48.778;9.156;2023-04-15T12:51:10;8.23;;;4.60;;
553;SDS011;59;48.778;9.156;2023-04-15T12:53:36;7.83;;;4.60;;
553;SDS011;59;48.778;9.156;2023-04-15T12:56:01;7.50;;;4.63;;
553;SDS011;59;48.778;9.156;2023-04-15T12:58:27;4.70;;;3.63;;
553;SDS011;59;48.778;9.156;2023-04-15T13:00:52;3.97;;;3.20;;
553;SDS011;59;48.778;9.156;2023-04-15T13:03:18;5.83;;;4.00;;
553;SDS011;59;48.778;9.156;2023-04-15T13:05:45;4.43;;;3.10;;
553;SDS011;59;48.778;9.156;2023-04-15T13:08:11;3.17;;;2.60;;
553;SDS011;59;48.778;9.156;2023-04-15T13:10:36;5.33;;;3.20;;
553;SDS011;59;48.778;9.156;2023-04-15T13:13:02;4.53;;;2.97;;
553;SDS011;59;48.778;9.156;2023-04-15T13:15:28;3.07;;;2.60;;
553;SDS011;59;48.778;9.156;2023-04-15T13:17:54;5.70;;;2.93;;
553;SDS011;59;48.778;9.156;2023-04-15T13:20:20;4.23;;;2.90;;
553;SDS011;59;48.778;9.156;2023-04-15T13:22:46;4.40;;;3.10;;
553;SDS011;59;48.778;9.156;2023-04-15T13:25:12;4.87;;;3.00;;
553;SDS011;59;48.778;9.156;2023-04-15T13:27:37;3.77;;;2.63;;
553;SDS011;59;48.778;9.156;2023-04-15T13:30:03;4.20;;;2.47;;
553;SDS011;59;48.778;9.156;2023-04-15T13:32:30;3.47;;;2.50;;
553;SDS011;59;48.778;9.156;2023-04-15T13:34:55;3.70;;;2.50;;
553;SDS011;59;48.778;9.156;2023-04-15T13:37:28;5.63;;;2.83;;
553;SDS011;59;48.778;9.156;2023-04-15T13:39:54;3.90;;;2.80;;
553;SDS011;59;48.778;9.156;2023-04-15T13:42:20;4.10;;;2.27;;
553;SDS011;59;48.778;9.156;2023-04-15T13:44:46;3.17;;;2.47;;
553;SDS011;59;48.778;9.156;2023-04-15T13:47:13;3.43;;;2.13;;
553;SDS011;59;48.778;9.156;2023-04-15T13:49:40;3.17;;;2.20;;
553;SDS011;59;48.778;9.156;2023-04-15T13:52:06;4.13;;;2.20;;
553;SDS011;59;48.778;9.156;2023-04-15T13:54:31;7.57;;;2.17;;
553;SDS011;59;48.778;9.156;2023-04-15T13:56:57;3.83;;;1.90;;
553;SDS011;59;48.778;9.156;2023-04-15T13:59:23;3.00;;;1.80;;
553;SDS011;59;48.778;9.156;2023-04-15T14:01:48;3.13;;;1.50;;
553;SDS011;59;48.778;9.156;2023-04-15T14:04:14;2.93;;;2.17;;
553;SDS011;59;48.778;9.156;2023-04-15T14:06:40;2.60;;;1.77;;
553;SDS011;59;48.778;9.156;2023-04-15T14:09:05;2.73;;;1.70;;
553;SDS011;59;48.778;9.156;2023-04-15T14:11:31;4.97;;;2.10;;
553;SDS011;59;48.778;9.156;2023-04-15T14:13:59;2.03;;;1.70;;
553;SDS011;59;48.778;9.156;2023-04-15T14:16:25;4.27;;;2.80;;
553;SDS011;59;48.778;9.156;2023-04-15T14:18:50;4.43;;;3.10;;
553;SDS011;59;48.778;9.156;2023-04-15T14:21:16;3.10;;;2.53;;
553;SDS011;59;48.778;9.156;2023-04-15T14:23:42;2.27;;;1.70;;
553;SDS011;59;48.778;9.156;2023-04-15T14:26:08;4.43;;;1.87;;
553;SDS011;59;48.778;9.156;2023-04-15T14:28:33;3.73;;;1.77;;
553;SDS011;59;48.778;9.156;2023-04-15T14:30:59;2.30;;;1.80;;
553;SDS011;59;48.778;9.156;2023-04-15T14:33:25;1.73;;;1.63;;
553;SDS011;59;48.778;9.156;2023-04-15T14:35:50;1.80;;;1.73;;
553;SDS011;59;48.778;9.156;2023-04-15T14:38:16;1.73;;;1.70;;
553;SDS011;59;48.778;9.156;2023-04-15T14:40:42;3.10;;;1.70;;
553;SDS011;59;48.778;9.156;2023-04-15T14:43:08;3.87;;;1.93;;
553;SDS011;59;48.778;9.156;2023-04-15T14:45:36;2.17;;;1.73;;
553;SDS011;59;48.778;9.156;2023-04-15T14:48:02;2.87;;;1.93;;
553;SDS011;59;48.778;9.156;2023-04-15T14:50:30;3.67;;;2.20;;
553;SDS011;59;48.778;9.156;2023-04-15T14:52:56;2.27;;;1.93;;
553;SDS011;59;48.778;9.156;2023-04-15T14:55:22;3.27;;;2.30;;
553;SDS011;59;48.778;9.156;2023-04-15T14:57:48;2.40;;;1.90;;
553;SDS011;59;48.778;9.156;2023-04-15T15:00:13;3.10;;;2.10;;
553;SDS011;59;48.778;9.156;2023-04-15T15:02:39;3.17;;;2.30;;
553;SDS011;59;48.778;9.156;2023-04-15T15:05:06;5.67;;;2.03;;
553;SDS011;59;48.778;9.156;2023-04-15T15:07:33;3.60;;;2.33;;
553;SDS011;59;48.778;9.156;2023-04-15T15:10:00;3.80;;;2.10;;
553;SDS011;59;48.778;9.156;2023-04-15T15:12:26;4.90;;;2.60;;
553;SDS011;59;48.778;9.156;2023-04-15T15:14:53;3.10;;;2.20;;
553;SDS011;59;48.778;9.156;2023-04-15T15:17:19;2.87;;;2.07;;
553;SDS011;59;48.778;9.156;2023-04-15T15:19:45;4.10;;;2.47;;
553;SDS011;59;48.778;9.156;2023-04-15T15:22:10;5.17;;;2.00;;
553;SDS011;59;48.778;9.156;2023-04-15T15:24:36;2.20;;;1.80;;
553;SDS011;59;48.778;9.156;2023-04-15T15:27:02;2.50;;;1.80;;
553;SDS011;59;48.778;9.156;2023-04-15T15:29:27;5.67;;;3.47;;
553;SDS011;59;48.778;9.156;2023-04-15T15:31:53;4.10;;;2.87;;
553;SDS011;59;48.778;9.156;2023-04-15T15:34:19;4.43;;;2.17;;
553;SDS011;59;48.778;9.156;2023-04-15T15:36:44;6.17;;;2.77;;
553;SDS011;59;48.778;9.156;2023-04-15T15:39:10;2.80;;;2.20;;
553;SDS011;59;48.778;9.156;2023-04-15T15:41:35;5.03;;;2.90;;
553;SDS011;59;48.778;9.156;2023-04-15T15:44:01;2.60;;;1.70;;
553;SDS011;59;48.778;9.156;2023-04-15T15:46:27;2.93;;;2.07;;
553;SDS011;59;48.778;9.156;2023-04-15T15:48:55;2.30;;;1.70;;
553;SDS011;59;48.778;9.156;2023-04-15T15:51:21;3.60;;;2.00;;
553;SDS011;59;48.778;9.156;2023-04-15T15:53:47;3.60;;;1.90;;
553;SDS011;59;48.778;9.156;2023-04-15T15:56:13;1.90;;;1.80;;
553;SDS011;59;48.778;9.156;2023-04-15T15:58:39;2.53;;;1.90;;
553;SDS011;59;48.778;9.156;2023-04-15T16:01:05;2.80;;;2.20;;
553;SDS011;59;48.778;9.156;2023-04-15T16:03:31;3.20;;;1.80;;
553;SDS011;59;48.778;9.156;2023-04-15T16:05:56;2.63;;;2.13;;
553;SDS011;59;48.778;9.156;2023-04-15T16:08:22;7.00;;;4.83;;
553;SDS011;59;48.778;9.156;2023-04-15T16:10:48;8.63;;;6.03;;
553;SDS011;59;48.778;9.156;2023-04-15T16:13:13;3.90;;;2.40;;
553;SDS011;59;48.778;9.156;2023-04-15T16:15:39;4.70;;;2.40;;
553;SDS011;59;48.778;9.156;2023-04-15T16:18:05;3.70;;;1.93;;
553;SDS011;59;48.778;9.156;2023-04-15T16:20:31;6.00;;;2.53;;
553;SDS011;59;48.778;9.156;2023-04-15T16:22:56;4.50;;;3.10;;
553;SDS011;59;48.778;9.156;2023-04-15T16:25:23;2.70;;;2.37;;
553;SDS011;59;48.778;9.156;2023-04-15T16:27:49;3.50;;;2.43;;
553;SDS011;59;48.778;9.156;2023-04-15T16:30:15;2.60;;;2.27;;
553;SDS011;59;48.778;9.156;2023-04-15T16:32:41;2.80;;;2.30;;